createdAt,value
2023-04-25T00:02:27.859Z,84
2023-04-25T00:05:52.990Z,84
2023-04-25T00:09:18.224Z,84
2023-04-25T00:12:43.449Z,84
2023-04-25T00:16:08.640Z,84
2023-04-25T00:19:33.850Z,84
2023-04-25T00:22:59.056Z,84
2023-04-25T00:26:24.312Z,84
2023-04-25T00:29:49.811Z,84
2023-04-25T00:33:15.070Z,84
2023-04-25T00:36:40.199Z,84
2023-04-25T00:40:05.390Z,84
2023-04-25T00:43:30.591Z,84
2023-04-25T00:46:55.864Z,84
2023-04-25T00:50:21.038Z,84
2023-04-25T00:53:46.220Z,84
2023-04-25T00:57:11.468Z,84
2023-04-25T01:00:36.654Z,84
2023-04-25T01:04:02.002Z,84
2023-04-25T01:07:27.117Z,85
2023-04-25T01:10:52.339Z,85
2023-04-25T01:14:17.563Z,85
2023-04-25T01:17:42.795Z,85
2023-04-25T01:21:08.066Z,86
2023-04-25T01:24:33.205Z,86
2023-04-25T01:27:58.394Z,85
2023-04-25T01:31:23.645Z,86
2023-04-25T01:34:48.854Z,86
2023-04-25T01:38:14.091Z,86
2023-04-25T01:41:39.319Z,86
2023-04-25T01:45:04.537Z,86
2023-04-25T01:48:29.730Z,86
2023-04-25T01:51:54.938Z,86
2023-04-25T01:55:20.177Z,86
2023-04-25T01:58:45.377Z,85
2023-04-25T02:02:10.601Z,86
2023-04-25T02:05:35.789Z,85
2023-04-25T02:09:01.029Z,85
2023-04-25T02:12:26.270Z,85
2023-04-25T02:15:51.498Z,86
2023-04-25T02:19:16.677Z,86
2023-04-25T02:22:41.909Z,86
2023-04-25T02:26:07.153Z,86
2023-04-25T02:29:32.484Z,86
2023-04-25T02:32:57.721Z,86
2023-04-25T02:36:22.898Z,86
2023-04-25T02:39:48.108Z,87
2023-04-25T02:43:13.335Z,87
2023-04-25T02:46:39.896Z,86
2023-04-25T02:50:03.743Z,87
2023-04-25T02:53:28.939Z,87
2023-04-25T02:56:54.149Z,87
2023-04-25T03:00:19.374Z,87
2023-04-25T03:03:44.709Z,87
2023-04-25T03:07:09.786Z,87
2023-04-25T03:10:35.009Z,87
2023-04-25T03:14:00.237Z,87
2023-04-25T03:17:25.428Z,87
2023-04-25T03:20:50.666Z,87
2023-04-25T03:24:15.863Z,87
2023-04-25T03:27:41.072Z,87
2023-04-25T03:31:06.278Z,87
2023-04-25T03:34:31.478Z,87
2023-04-25T03:37:57.130Z,87
2023-04-25T03:41:22.307Z,87
2023-04-25T03:44:47.577Z,87
2023-04-25T03:48:12.850Z,87
2023-04-25T03:51:38.053Z,86
2023-04-25T03:55:03.340Z,87
2023-04-25T03:58:28.554Z,87
2023-04-25T04:01:53.793Z,87
2023-04-25T04:05:19.060Z,87
2023-04-25T04:08:44.255Z,87
2023-04-25T04:12:09.509Z,85
2023-04-25T04:15:34.736Z,85
2023-04-25T04:18:59.964Z,85
2023-04-25T04:22:25.196Z,86
2023-04-25T04:25:50.423Z,85
2023-04-25T04:29:15.684Z,86
2023-04-25T04:32:40.953Z,86
2023-04-25T04:36:06.138Z,86
2023-04-25T04:39:31.370Z,86
2023-04-25T04:42:56.615Z,86
2023-04-25T04:46:21.908Z,85
2023-04-25T04:49:47.059Z,85
2023-04-25T04:53:12.302Z,85
2023-04-25T04:56:37.502Z,86
2023-04-25T05:00:02.740Z,86
2023-04-25T05:03:28.089Z,86
2023-04-25T05:06:53.196Z,86
2023-04-25T05:10:18.440Z,86
2023-04-25T05:13:43.701Z,87
2023-04-25T05:17:08.915Z,86
2023-04-25T05:20:35.532Z,87
2023-04-25T05:24:00.709Z,87
2023-04-25T05:27:25.938Z,87
2023-04-25T05:30:51.174Z,87
2023-04-25T05:34:16.386Z,87
2023-04-25T05:37:41.648Z,87
2023-04-25T05:41:06.862Z,86
2023-04-25T05:44:32.064Z,87
2023-04-25T05:47:57.390Z,86
2023-04-25T05:51:22.563Z,86
2023-04-25T05:54:47.777Z,86
2023-04-25T05:58:12.999Z,85
2023-04-25T06:01:38.227Z,86
2023-04-25T06:05:03.560Z,86
2023-04-25T06:08:28.720Z,86
2023-04-25T06:11:53.996Z,86
2023-04-25T06:15:27.833Z,86
2023-04-25T06:18:44.402Z,86
2023-04-25T06:22:09.625Z,86
2023-04-25T06:25:34.928Z,85
2023-04-25T06:29:00.206Z,85
2023-04-25T06:32:26.079Z,84
2023-04-25T06:35:50.682Z,84
2023-04-25T06:39:15.891Z,83
2023-04-25T06:42:41.127Z,84
2023-04-25T06:46:06.397Z,84
2023-04-25T06:49:31.605Z,84
2023-04-25T06:52:56.815Z,82
2023-04-25T06:56:22.026Z,81
2023-04-25T06:59:47.259Z,81
2023-04-25T07:03:12.725Z,81
2023-04-25T07:06:37.750Z,81
2023-04-25T07:10:02.996Z,81
2023-04-25T07:13:28.244Z,80
2023-04-25T07:16:53.517Z,80
2023-04-25T07:20:18.707Z,80
2023-04-25T07:23:44.242Z,78
2023-04-25T07:27:09.475Z,78
2023-04-25T07:30:34.675Z,77
2023-04-25T07:34:01.839Z,78
2023-04-25T07:37:25.155Z,75
2023-04-25T07:40:50.367Z,76
2023-04-25T07:44:15.637Z,77
2023-04-25T07:47:40.887Z,76
2023-04-25T07:51:06.090Z,74
2023-04-25T07:54:31.378Z,75
2023-04-25T07:57:56.535Z,72
2023-04-25T08:01:21.762Z,74
2023-04-25T08:04:47.079Z,75
2023-04-25T08:08:12.203Z,75
2023-04-25T08:11:37.433Z,74
2023-04-25T08:15:02.666Z,74
2023-04-25T08:18:27.942Z,75
2023-04-25T08:21:53.055Z,74
2023-04-25T08:25:18.294Z,76
2023-04-25T08:28:43.542Z,76
2023-04-25T08:32:08.717Z,74
2023-04-25T08:35:33.963Z,74
2023-04-25T08:38:59.213Z,73
2023-04-25T08:42:24.449Z,72
2023-04-25T08:45:49.699Z,73
2023-04-25T08:49:14.934Z,74
2023-04-25T08:52:40.195Z,75
2023-04-25T08:56:05.351Z,76
2023-04-25T08:59:30.616Z,75
2023-04-25T09:02:55.964Z,74
2023-04-25T09:06:21.065Z,74
2023-04-25T09:09:46.310Z,75
2023-04-25T09:13:11.609Z,73
2023-04-25T09:16:38.322Z,74
2023-04-25T09:20:02.064Z,74
2023-04-25T09:23:27.281Z,73
2023-04-25T09:26:52.507Z,73
2023-04-25T09:30:17.737Z,71
2023-04-25T09:33:42.979Z,72
2023-04-25T09:37:08.261Z,73
2023-04-25T09:40:33.466Z,72
2023-04-25T09:43:58.840Z,72
2023-04-25T09:47:23.938Z,72
2023-04-25T09:50:49.108Z,73
2023-04-25T09:54:14.574Z,74
2023-04-25T09:57:39.569Z,74
2023-04-25T10:01:04.810Z,74
2023-04-25T10:04:31.169Z,74
2023-04-25T10:07:55.235Z,73
2023-04-25T10:11:20.486Z,74
2023-04-25T10:14:45.684Z,73
2023-04-25T10:18:10.945Z,74
2023-04-25T10:21:36.133Z,73
2023-04-25T10:25:01.365Z,74
2023-04-25T10:28:26.736Z,73
2023-04-25T10:31:51.849Z,74
2023-04-25T10:35:17.139Z,75
2023-04-25T10:38:42.871Z,75
2023-04-25T10:42:08.114Z,74
2023-04-25T10:45:33.490Z,75
2023-04-25T10:48:58.690Z,74
2023-04-25T10:52:23.919Z,74
2023-04-25T10:55:49.149Z,75
2023-04-25T10:59:14.387Z,74
2023-04-25T11:02:39.770Z,76
2023-04-25T11:06:04.870Z,75
2023-04-25T11:09:30.098Z,73
2023-04-25T11:12:55.355Z,74
2023-04-25T11:16:27.394Z,72
2023-04-25T11:19:46.259Z,72
2023-04-25T11:23:11.071Z,74
2023-04-25T11:26:36.276Z,75
2023-04-25T11:30:01.537Z,74
2023-04-25T11:33:26.778Z,72
2023-04-25T11:36:52.066Z,71
2023-04-25T11:40:17.155Z,73
2023-04-25T11:43:43.440Z,73
2023-04-25T11:47:07.893Z,71
2023-04-25T11:50:33.120Z,71
2023-04-25T11:53:58.377Z,71
2023-04-25T11:57:23.557Z,75
2023-04-25T12:00:50.270Z,75
2023-04-25T12:04:14.304Z,77
2023-04-25T12:07:39.224Z,78
2023-04-25T12:11:04.459Z,80
2023-04-25T12:14:29.653Z,78
2023-04-25T12:17:54.970Z,80
2023-04-25T12:21:20.122Z,79
2023-04-25T12:24:45.407Z,78
2023-04-25T12:28:10.764Z,76
2023-04-25T12:31:35.987Z,78
2023-04-25T12:35:01.110Z,76
2023-04-25T12:38:26.319Z,75
2023-04-25T12:41:51.567Z,77
2023-04-25T12:45:17.027Z,75
2023-04-25T12:48:42.227Z,74
2023-04-25T12:52:07.465Z,76
2023-04-25T12:55:32.652Z,74
2023-04-25T12:58:57.872Z,74
2023-04-25T13:02:23.282Z,73
2023-04-25T13:05:48.507Z,74
2023-04-25T13:09:13.942Z,71
2023-04-25T13:12:39.094Z,72
2023-04-25T13:16:04.405Z,73
2023-04-25T13:19:29.833Z,72
2023-04-25T13:22:55.030Z,71
2023-04-25T13:26:20.322Z,70
2023-04-25T13:29:45.678Z,71
2023-04-25T13:33:11.202Z,70
2023-04-25T13:36:36.438Z,73
2023-04-25T13:40:01.728Z,71
2023-04-25T13:43:27.002Z,71
2023-04-25T13:46:52.339Z,71
2023-04-25T13:50:17.683Z,70
2023-04-25T13:53:42.990Z,72
2023-04-25T13:57:08.255Z,70
2023-04-25T14:00:33.563Z,71
2023-04-25T14:03:58.897Z,71
2023-04-25T14:07:24.233Z,71
2023-04-25T14:10:49.586Z,71
2023-04-25T14:14:14.928Z,71
2023-04-25T14:17:40.256Z,69
2023-04-25T14:21:05.630Z,71
2023-04-25T14:24:30.956Z,70
2023-04-25T14:27:56.408Z,68
2023-04-25T14:31:21.708Z,68
2023-04-25T14:34:47.012Z,67
2023-04-25T14:38:12.304Z,67
2023-04-25T14:41:37.652Z,69
2023-04-25T14:45:03.171Z,68
2023-04-25T14:48:28.621Z,68
2023-04-25T14:51:53.929Z,68
2023-04-25T14:55:19.220Z,67
2023-04-25T14:58:44.512Z,67
2023-04-25T15:02:09.900Z,68
2023-04-25T15:39:25.604Z,68
2023-04-25T15:42:50.869Z,66
2023-04-25T15:46:16.285Z,66
2023-04-25T15:49:41.537Z,65
2023-04-25T15:53:07.355Z,65
2023-04-25T15:56:32.166Z,65
2023-04-25T15:59:57.485Z,63
2023-04-25T16:03:22.871Z,63
2023-04-25T16:06:48.050Z,63
2023-04-25T16:10:13.355Z,63
2023-04-25T16:13:38.688Z,61
2023-04-25T16:17:05.238Z,60
2023-04-25T16:20:30.577Z,62
2023-04-25T16:23:55.895Z,62
2023-04-25T16:27:21.166Z,59
2023-04-25T16:30:46.534Z,60
2023-04-25T16:34:11.754Z,61
2023-04-25T16:37:37.022Z,59
2023-04-25T16:41:02.367Z,57
2023-04-25T16:44:27.652Z,58
2023-04-25T16:47:53.003Z,57
2023-04-25T16:51:18.233Z,59
2023-04-25T16:54:43.558Z,58
2023-04-25T16:58:10.426Z,60
2023-04-25T17:01:34.180Z,58
2023-04-25T17:04:59.518Z,59
2023-04-25T17:08:25.546Z,59
2023-04-25T17:11:50.998Z,58
2023-04-25T17:15:16.514Z,59
2023-04-25T17:18:42.169Z,59
2023-04-25T17:22:07.585Z,60
2023-04-25T17:25:32.869Z,60
2023-04-25T17:28:58.147Z,59
2023-04-25T17:32:23.480Z,60
2023-04-25T17:35:48.793Z,63
2023-04-25T17:39:14.220Z,62
2023-04-25T17:42:39.480Z,62
2023-04-25T17:46:04.890Z,62
2023-04-25T17:49:30.150Z,64
2023-04-25T17:52:55.480Z,64
2023-04-25T17:56:26.884Z,65
2023-04-25T17:59:46.136Z,63
2023-04-25T18:03:11.585Z,64
2023-04-25T18:06:36.784Z,64
2023-04-25T18:10:02.181Z,64
2023-04-25T18:13:27.625Z,63
2023-04-25T18:16:52.896Z,65
2023-04-25T18:20:18.309Z,65
2023-04-25T18:23:43.575Z,64
2023-04-25T18:27:08.905Z,64
2023-04-25T18:30:34.301Z,64
2023-04-25T18:33:59.542Z,65
2023-04-25T18:37:24.866Z,66
2023-04-25T18:40:58.021Z,66
2023-04-25T18:44:15.457Z,66
2023-04-25T18:47:40.885Z,67
2023-04-25T18:51:06.141Z,68
2023-04-25T18:54:31.466Z,68
2023-04-25T18:57:56.784Z,67
2023-04-25T19:01:22.109Z,67
2023-04-25T19:04:47.456Z,68
2023-04-25T19:08:12.726Z,70
2023-04-25T19:11:38.031Z,71
2023-04-25T19:15:03.337Z,72
2023-04-25T19:18:28.605Z,71
2023-04-25T19:21:53.985Z,71
2023-04-25T19:25:19.277Z,71
2023-04-25T19:28:44.579Z,70
2023-04-25T19:32:09.859Z,71
2023-04-25T19:35:35.154Z,72
2023-04-25T19:39:00.439Z,72
2023-04-25T19:42:25.782Z,72
2023-04-25T19:45:51.076Z,72
2023-04-25T19:49:16.308Z,72
2023-04-25T19:52:41.538Z,71
2023-04-25T19:56:06.826Z,72
2023-04-25T19:59:32.008Z,71
2023-04-25T20:02:57.346Z,72
2023-04-25T20:06:22.492Z,71
2023-04-25T20:09:47.747Z,72
2023-04-25T20:13:12.977Z,72
2023-04-25T20:16:38.209Z,73
2023-04-25T20:20:03.405Z,73
2023-04-25T20:23:28.668Z,73
2023-04-25T20:26:53.890Z,72
2023-04-25T20:30:19.172Z,72
2023-04-25T20:33:44.397Z,72
2023-04-25T20:37:09.626Z,71
2023-04-25T20:40:34.846Z,70
2023-04-25T20:44:00.105Z,70
2023-04-25T20:47:25.349Z,70
2023-04-25T20:50:50.512Z,69
2023-04-25T20:54:15.731Z,69
2023-04-25T20:57:40.960Z,70
2023-04-25T21:01:06.229Z,70
2023-04-25T21:04:31.461Z,70
2023-04-25T21:07:56.652Z,70
2023-04-25T21:11:21.898Z,72
2023-04-25T21:14:47.113Z,72
2023-04-25T21:18:12.375Z,72
2023-04-25T21:21:37.612Z,72
2023-04-25T21:25:02.822Z,71
2023-04-25T21:28:28.044Z,71
2023-04-25T21:31:53.290Z,70
2023-04-25T21:35:18.558Z,69
2023-04-25T21:38:43.832Z,68
2023-04-25T21:42:09.043Z,68
2023-04-25T21:45:38.494Z,69
2023-04-25T21:48:59.470Z,69
2023-04-25T21:52:24.682Z,69
2023-04-25T21:55:49.937Z,69
2023-04-25T21:59:15.130Z,69
2023-04-25T22:02:40.446Z,69
2023-04-25T22:06:05.566Z,69
2023-04-25T22:09:31.913Z,70
2023-04-25T22:12:56.014Z,69
2023-04-25T22:16:21.228Z,70
2023-04-25T22:19:46.440Z,70
2023-04-25T22:23:11.662Z,70
2023-04-25T22:26:37.143Z,70
2023-04-25T22:30:02.401Z,70
2023-04-25T22:33:27.575Z,71
2023-04-25T22:36:52.806Z,71
2023-04-25T22:40:18.062Z,71
2023-04-25T22:43:43.309Z,71
2023-04-25T22:47:08.518Z,72
2023-04-25T22:50:33.722Z,72
2023-04-25T22:53:58.978Z,72
2023-04-25T22:57:24.196Z,71
2023-04-25T23:00:49.460Z,71
2023-04-25T23:04:14.882Z,71
2023-04-25T23:07:39.914Z,71
2023-04-25T23:11:05.157Z,71
2023-04-25T23:14:30.422Z,72
2023-04-25T23:17:55.725Z,72
2023-04-25T23:21:21.044Z,72
2023-04-25T23:24:46.161Z,72
2023-04-25T23:28:11.373Z,72
2023-04-25T23:31:36.629Z,73
2023-04-25T23:35:01.809Z,72
2023-04-25T23:38:27.053Z,73
2023-04-25T23:41:52.241Z,73
2023-04-25T23:45:17.441Z,72
2023-04-25T23:48:42.661Z,73
2023-04-25T23:52:07.864Z,74
2023-04-25T23:55:33.073Z,74
2023-04-25T23:58:58.309Z,74
